Terminal Aerodrome Forecast
Issued by NWS

Current Version | Previous Version | Text Only | Print | Product List | Glossary Off
Versions: 1 2 3 4 5 6 7 8 9 10 11 12 13 14 15 16 17 18 19 20 21 22

000
FTUS41 KRLX 170500
TAFCKB
TAF
KCKB 170521Z 1706/1806 00000KT 6SM BR OVC060
     FM170800 00000KT 4SM BR OVC050
     FM171100 00000KT 1/2SM FG OVC001
     FM171300 00000KT 3SM BR SCT001
     FM171400 00000KT P6SM FEW050
     FM172000 28004KT P6SM FEW040=

USA.gov is the U.S. government's official web portal to all federal, state and local government web resources and services.